Time;durP1;ratioP1;P1;durP2;ratioP2;P2;SDS_P1;SDS_P2;PMS_P1;PMS_P2;Temp;Humidity;BMP_temperature;BMP_pressure;BME280_temperature;BME280_humidity;BME280_pressure;Samples;Min_cycle;Max_cycle;Signal;HPM_P1;HPM_P2
2022/08/19 00:00:16;;;;;;;9.60;8.82;;;25.30;53.70;;;;;;5019812;28;20220;-77
2022/08/19 00:02:45;;;;;;;9.05;8.35;;;25.20;53.70;;;;;;5020297;28;20211;-76
2022/08/19 00:05:13;;;;;;;9.85;8.95;;;25.20;53.80;;;;;;5019570;28;20188;-76
2022/08/19 00:07:40;;;;;;;9.52;8.82;;;25.20;53.80;;;;;;5037665;28;20192;-75
2022/08/19 00:10:08;;;;;;;9.38;8.57;;;25.20;53.80;;;;;;5019907;28;20248;-76
2022/08/19 00:12:37;;;;;;;9.77;8.90;;;25.20;53.90;;;;;;5019979;28;20204;-76
2022/08/19 00:15:04;;;;;;;9.82;9.02;;;25.20;54.00;;;;;;5019577;28;20569;-76
2022/08/19 00:17:32;;;;;;;9.15;8.45;;;25.20;53.90;;;;;;5037521;28;20275;-76
2022/08/19 00:20:00;;;;;;;9.68;8.88;;;25.20;53.90;;;;;;5019706;28;20654;-76
2022/08/19 00:22:28;;;;;;;9.10;8.40;;;25.20;53.90;;;;;;5020379;28;20249;-76
2022/08/19 00:24:55;;;;;;;9.40;8.60;;;25.20;53.90;;;;;;5037121;28;20616;-76
2022/08/19 00:27:21;;;;;;;9.65;8.85;;;25.20;53.90;;;;;;5019360;28;20192;-76
2022/08/19 00:29:48;;;;;;;9.80;9.00;;;25.20;53.90;;;;;;5019509;28;20220;-76
2022/08/19 00:32:16;;;;;;;9.63;8.85;;;25.20;54.00;;;;;;5019235;28;20291;-76
2022/08/19 00:34:43;;;;;;;10.10;9.25;;;25.20;54.00;;;;;;5021224;28;20589;-75
2022/08/19 00:37:11;;;;;;;9.60;8.88;;;25.20;54.00;;;;;;5019971;28;20192;-76
2022/08/19 00:39:38;;;;;;;10.18;9.38;;;25.10;53.90;;;;;;5019295;28;20663;-75
2022/08/19 00:42:07;;;;;;;10.30;9.32;;;25.10;53.90;;;;;;5019444;28;20211;-75
2022/08/19 00:44:33;;;;;;;10.38;9.50;;;25.10;54.00;;;;;;5019494;28;20212;-76
2022/08/19 00:47:02;;;;;;;9.88;9.07;;;25.10;54.00;;;;;;5020543;28;20208;-75
2022/08/19 00:49:32;;;;;;;9.88;9.07;;;25.10;54.00;;;;;;5020681;28;20204;-76
2022/08/19 00:52:02;;;;;;;10.02;9.23;;;25.10;54.00;;;;;;5021955;28;20200;-76
2022/08/19 00:54:32;;;;;;;10.45;9.63;;;25.10;54.00;;;;;;5038247;28;20254;-76
2022/08/19 00:57:00;;;;;;;10.05;9.25;;;25.10;54.10;;;;;;5019975;28;20198;-75
2022/08/19 00:59:27;;;;;;;10.18;9.38;;;25.10;54.10;;;;;;5019707;28;20203;-75
2022/08/19 01:01:54;;;;;;;10.00;9.20;;;25.10;54.10;;;;;;5019122;28;20639;-75
2022/08/19 01:04:21;;;;;;;9.93;9.23;;;25.10;54.10;;;;;;5020486;28;20662;-76
2022/08/19 01:06:48;;;;;;;11.27;10.30;;;25.10;54.10;;;;;;5038052;28;20243;-76
2022/08/19 01:09:15;;;;;;;10.55;9.70;;;25.10;54.20;;;;;;5018689;28;20203;-76
2022/08/19 01:11:43;;;;;;;10.75;9.85;;;25.10;54.10;;;;;;5018554;28;20208;-77
2022/08/19 01:14:11;;;;;;;10.25;9.43;;;25.10;54.20;;;;;;5036240;28;20208;-75
2022/08/19 01:16:38;;;;;;;10.68;9.73;;;25.10;54.20;;;;;;5018894;28;20210;-77
2022/08/19 01:19:10;;;;;;;10.48;9.68;;;25.10;54.20;;;;;;5020807;28;20196;-76
2022/08/19 01:21:40;;;;;;;10.65;9.75;;;25.10;54.20;;;;;;5039062;28;20215;-77
2022/08/19 01:24:09;;;;;;;11.10;10.18;;;25.10;54.10;;;;;;5023486;28;20255;-77
2022/08/19 01:26:39;;;;;;;11.07;10.18;;;25.10;54.20;;;;;;5025584;28;20160;-76
2022/08/19 01:29:07;;;;;;;10.65;9.80;;;25.10;54.20;;;;;;5031811;28;20634;-74
2022/08/19 01:31:34;;;;;;;10.82;9.93;;;25.10;54.20;;;;;;5020040;28;20223;-77
2022/08/19 01:34:02;;;;;;;10.60;9.60;;;25.00;54.10;;;;;;5018566;28;20278;-75
2022/08/19 01:36:34;;;;;;;10.98;10.07;;;25.10;54.20;;;;;;5002131;28;20212;-75
2022/08/19 01:39:01;;;;;;;11.48;10.48;;;25.10;54.30;;;;;;5018350;28;20228;-75
2022/08/19 01:41:30;;;;;;;11.25;10.27;;;25.00;54.20;;;;;;5034829;28;20222;-75
2022/08/19 01:43:57;;;;;;;10.80;9.90;;;25.00;54.20;;;;;;5018053;28;20194;-76
2022/08/19 01:46:24;;;;;;;10.27;9.38;;;25.00;54.20;;;;;;5017570;28;20212;-75
2022/08/19 01:48:51;;;;;;;11.40;10.50;;;25.00;54.20;;;;;;5017609;28;20712;-76
2022/08/19 01:51:18;;;;;;;11.30;10.30;;;25.00;54.20;;;;;;5017958;28;20219;-76
2022/08/19 01:53:48;;;;;;;10.93;10.02;;;25.00;54.20;;;;;;5018683;28;20226;-76
2022/08/19 01:56:15;;;;;;;11.10;10.20;;;25.00;54.20;;;;;;5034178;28;20695;-77
2022/08/19 01:58:47;;;;;;;10.57;9.65;;;25.00;54.20;;;;;;5017435;28;20274;-77
2022/08/19 02:01:14;;;;;;;10.77;9.77;;;25.00;54.20;;;;;;5018335;28;20223;-77
2022/08/19 02:03:41;;;;;;;11.68;10.68;;;25.00;54.20;;;;;;5018581;28;20394;-76
2022/08/19 02:06:08;;;;;;;11.90;10.93;;;25.00;54.20;;;;;;5017788;28;20282;-77
2022/08/19 02:08:36;;;;;;;11.10;10.10;;;24.90;54.10;;;;;;5017287;28;20228;-76
2022/08/19 02:11:04;;;;;;;10.88;9.98;;;25.00;54.20;;;;;;5033698;28;20246;-77
2022/08/19 02:13:31;;;;;;;11.45;10.45;;;24.90;54.10;;;;;;5034993;28;20275;-77
2022/08/19 02:15:59;;;;;;;11.90;10.80;;;25.00;54.20;;;;;;5016843;28;20248;-77
2022/08/19 02:18:27;;;;;;;10.93;9.93;;;25.00;54.20;;;;;;5034811;28;20212;-77
2022/08/19 02:20:55;;;;;;;11.75;10.70;;;25.00;54.20;;;;;;5016985;28;20226;-77
2022/08/19 02:23:21;;;;;;;10.85;9.95;;;24.90;54.10;;;;;;5017108;28;20654;-76
2022/08/19 02:25:49;;;;;;;10.85;9.95;;;24.90;54.20;;;;;;5017073;28;20199;-76
2022/08/19 02:28:15;;;;;;;11.68;10.68;;;24.90;54.20;;;;;;5017075;28;20204;-77
2022/08/19 02:30:42;;;;;;;11.32;10.35;;;24.90;54.10;;;;;;5016861;28;20219;-76
2022/08/19 02:33:10;;;;;;;11.20;10.20;;;24.90;54.20;;;;;;5016925;28;20200;-76
2022/08/19 02:35:38;;;;;;;11.00;10.10;;;24.90;54.20;;;;;;5016800;28;20254;-76
2022/08/19 02:40:50;;;;;;;11.93;10.93;;;24.90;54.20;;;;;;5014412;28;20247;-76
2022/08/19 02:43:17;;;;;;;11.70;10.70;;;24.90;54.20;;;;;;5033119;28;20200;-78
2022/08/19 02:45:44;;;;;;;11.38;10.40;;;24.90;54.30;;;;;;5033102;28;20207;-76
2022/08/19 02:48:13;;;;;;;12.00;11.00;;;24.90;54.30;;;;;;5016855;28;20196;-76
2022/08/19 02:50:40;;;;;;;12.05;10.95;;;24.90;54.10;;;;;;5016775;28;20662;-76
2022/08/19 02:53:08;;;;;;;12.02;11.02;;;24.90;54.20;;;;;;5017157;28;20196;-76
2022/08/19 02:55:35;;;;;;;11.80;10.80;;;24.90;54.20;;;;;;5016700;28;20314;-77
2022/08/19 02:58:02;;;;;;;12.15;11.15;;;24.90;54.30;;;;;;5017704;28;20207;-76
2022/08/19 03:00:29;;;;;;;12.02;11.02;;;24.90;54.30;;;;;;5021388;28;20589;-77
2022/08/19 03:02:56;;;;;;;12.80;11.70;;;24.90;54.20;;;;;;5021295;28;20577;-76
2022/08/19 03:05:25;;;;;;;12.30;11.20;;;24.90;54.40;;;;;;5020979;28;20203;-77
2022/08/19 03:07:52;;;;;;;11.40;10.50;;;24.90;54.20;;;;;;5022092;28;20257;-76
2022/08/19 03:10:20;;;;;;;12.75;11.65;;;24.90;54.40;;;;;;5038853;28;20216;-76
2022/08/19 03:12:47;;;;;;;12.25;11.25;;;24.90;54.60;;;;;;5021198;28;20200;-75
2022/08/19 03:15:15;;;;;;;12.40;11.40;;;24.90;54.70;;;;;;5020946;28;20227;-76
2022/08/19 03:17:42;;;;;;;13.07;11.88;;;24.90;54.80;;;;;;5020872;28;20195;-77
2022/08/19 03:20:10;;;;;;;12.85;11.65;;;24.90;54.80;;;;;;5038447;28;20641;-76
2022/08/19 03:22:38;;;;;;;13.13;11.93;;;24.90;54.80;;;;;;5021024;28;20267;-76
2022/08/19 03:25:06;;;;;;;13.02;11.85;;;24.90;54.80;;;;;;5020841;28;20199;-75
2022/08/19 03:27:33;;;;;;;12.85;11.60;;;24.90;54.80;;;;;;5020575;28;20654;-75
2022/08/19 03:30:00;;;;;;;12.70;11.55;;;24.90;54.80;;;;;;5020260;28;20224;-76
2022/08/19 03:32:27;;;;;;;13.45;12.25;;;24.90;54.80;;;;;;5020485;28;20196;-77
2022/08/19 03:34:55;;;;;;;12.48;11.43;;;25.00;54.60;;;;;;5037772;28;20690;-77
2022/08/19 03:37:22;;;;;;;13.43;12.18;;;24.90;54.60;;;;;;5020090;28;20199;-76
2022/08/19 03:39:50;;;;;;;13.57;12.32;;;24.90;54.60;;;;;;5036399;28;20234;-76
2022/08/19 03:42:17;;;;;;;12.82;11.73;;;25.00;54.60;;;;;;5020947;28;20638;-77
2022/08/19 03:44:44;;;;;;;13.50;12.20;;;25.00;54.50;;;;;;5020174;28;20196;-76
2022/08/19 03:47:15;;;;;;;13.05;11.85;;;25.00;54.50;;;;;;5020037;28;20677;-76
2022/08/19 03:49:42;;;;;;;13.82;12.63;;;25.00;54.50;;;;;;5019816;28;20196;-76
2022/08/19 03:52:09;;;;;;;13.32;12.13;;;25.00;54.50;;;;;;5019871;28;20199;-76
2022/08/19 03:54:37;;;;;;;14.15;12.90;;;25.00;54.40;;;;;;5019974;28;20190;-76
2022/08/19 03:57:06;;;;;;;13.45;12.20;;;25.00;54.40;;;;;;5037699;28;20192;-75
2022/08/19 03:59:35;;;;;;;13.95;12.70;;;25.00;54.50;;;;;;5019930;28;20616;-76
2022/08/19 04:02:03;;;;;;;12.85;11.75;;;25.00;54.40;;;;;;5037328;28;20200;-76
2022/08/19 04:04:30;;;;;;;14.27;13.07;;;25.00;54.50;;;;;;5020212;28;20200;-76
2022/08/19 04:06:57;;;;;;;14.13;12.77;;;25.00;54.40;;;;;;5036583;28;20200;-77
2022/08/19 04:09:25;;;;;;;13.50;12.30;;;25.00;54.40;;;;;;5020213;28;20259;-76
2022/08/19 04:11:53;;;;;;;13.40;12.20;;;25.00;54.40;;;;;;5019490;28;20216;-76
2022/08/19 04:14:28;;;;;;;13.32;12.20;;;25.00;54.50;;;;;;5019580;28;20200;-76
2022/08/19 04:16:55;;;;;;;13.75;12.55;;;25.00;54.40;;;;;;5020771;28;20191;-76
2022/08/19 04:19:23;;;;;;;14.40;12.93;;;25.00;54.60;;;;;;5019980;28;20238;-77
2022/08/19 04:21:51;;;;;;;14.27;12.98;;;25.00;54.50;;;;;;5019876;28;20690;-76
2022/08/19 04:24:19;;;;;;;14.15;12.85;;;25.00;54.50;;;;;;5019833;28;20234;-76
2022/08/19 04:26:46;;;;;;;13.65;12.48;;;25.00;54.60;;;;;;5019344;28;20706;-76
2022/08/19 04:29:14;;;;;;;14.23;12.93;;;25.00;54.40;;;;;;5019455;28;20188;-76
2022/08/19 04:31:43;;;;;;;13.73;12.43;;;25.00;54.40;;;;;;5035502;28;20219;-76
2022/08/19 04:34:11;;;;;;;14.43;13.13;;;25.00;54.40;;;;;;5019323;28;20192;-76
2022/08/19 04:36:38;;;;;;;14.75;13.35;;;25.00;54.40;;;;;;5038067;28;20212;-77
2022/08/19 04:39:08;;;;;;;17.95;16.17;;;25.00;54.40;;;;;;5004710;28;20290;-77
2022/08/19 04:44:21;;;;;;;20.92;18.80;;;25.00;54.80;;;;;;5020205;28;20258;-77
2022/08/19 04:46:49;;;;;;;18.42;16.58;;;24.90;54.80;;;;;;5036426;28;20204;-77
2022/08/19 04:49:16;;;;;;;19.17;17.42;;;24.80;54.90;;;;;;5003378;28;20206;-77
2022/08/19 04:51:45;;;;;;;19.45;17.55;;;24.70;55.20;;;;;;5019851;28;20646;-77
2022/08/19 04:54:12;;;;;;;19.08;17.02;;;24.60;55.30;;;;;;5020232;28;20662;-78
2022/08/19 04:56:40;;;;;;;20.65;17.20;;;24.60;55.60;;;;;;5020302;28;20251;-77
2022/08/19 04:59:08;;;;;;;20.27;18.13;;;24.50;55.70;;;;;;5035823;28;20732;-77
2022/08/19 05:01:36;;;;;;;19.70;17.70;;;24.50;55.70;;;;;;5019226;28;20720;-77
2022/08/19 05:04:06;;;;;;;19.75;17.80;;;24.40;56.30;;;;;;5019691;28;20231;-76
2022/08/19 05:06:33;;;;;;;19.63;17.80;;;24.30;55.80;;;;;;5035683;28;20564;-78
2022/08/19 05:09:00;;;;;;;20.55;18.52;;;24.30;56.00;;;;;;5019596;28;20641;-76
2022/08/19 05:11:29;;;;;;;20.08;18.17;;;24.30;56.00;;;;;;5019709;28;20311;-76
2022/08/19 05:13:56;;;;;;;18.48;16.70;;;24.20;56.10;;;;;;5019889;28;20589;-77
2022/08/19 05:16:23;;;;;;;18.30;16.38;;;24.20;56.40;;;;;;5020135;28;20659;-76
2022/08/19 05:24:17;;;;;;;16.60;15.00;;;24.20;55.70;;;;;;5019151;28;20237;-77
2022/08/19 05:26:46;;;;;;;15.93;14.43;;;24.20;55.70;;;;;;4986349;28;20200;-76
2022/08/19 05:29:13;;;;;;;16.27;14.70;;;24.30;55.70;;;;;;5018772;28;20207;-77
2022/08/19 05:31:40;;;;;;;15.45;14.00;;;24.30;55.60;;;;;;5018705;28;20220;-77
2022/08/19 05:34:08;;;;;;;16.05;14.55;;;24.30;55.50;;;;;;5018986;28;20286;-78
2022/08/19 05:36:39;;;;;;;14.88;13.57;;;24.40;55.50;;;;;;5018699;28;20327;-77
2022/08/19 05:39:06;;;;;;;15.85;14.35;;;24.40;55.40;;;;;;5018736;28;20204;-77
2022/08/19 05:41:33;;;;;;;14.57;13.07;;;24.40;55.40;;;;;;5018537;28;20670;-77
2022/08/19 05:44:02;;;;;;;14.68;13.38;;;24.40;55.50;;;;;;5018058;28;20208;-75
2022/08/19 05:46:29;;;;;;;15.48;13.95;;;24.40;55.40;;;;;;5019516;28;20208;-75
2022/08/19 05:48:57;;;;;;;18.15;15.38;;;24.40;55.40;;;;;;5021299;28;20654;-75
2022/08/19 05:51:24;;;;;;;18.15;14.82;;;24.50;55.60;;;;;;5018637;28;20223;-76
2022/08/19 05:53:53;;;;;;;21.45;15.38;;;24.50;55.80;;;;;;5035142;28;20191;-75
2022/08/19 05:56:20;;;;;;;18.25;15.50;;;24.50;55.70;;;;;;5016897;28;20696;-75
2022/08/19 05:58:48;;;;;;;19.52;15.10;;;24.50;55.60;;;;;;5017191;28;20242;-75
2022/08/19 06:01:16;;;;;;;16.33;14.70;;;24.50;55.50;;;;;;5019510;28;20219;-75
2022/08/19 06:03:44;;;;;;;15.02;13.55;;;24.50;55.70;;;;;;5020957;28;20242;-75
2022/08/19 06:06:12;;;;;;;15.20;13.80;;;24.60;55.70;;;;;;5020694;28;20192;-75
2022/08/19 06:08:39;;;;;;;15.25;13.73;;;24.50;55.40;;;;;;5035525;28;20246;-75
2022/08/19 06:11:18;;;;;;;14.95;13.60;;;24.60;55.40;;;;;;5019502;28;20270;-75
2022/08/19 06:13:47;;;;;;;15.40;14.00;;;24.60;55.40;;;;;;5000775;28;20202;-75
2022/08/19 06:16:19;;;;;;;15.45;13.95;;;24.60;55.30;;;;;;5017669;28;20294;-76
2022/08/19 06:18:46;;;;;;;15.13;13.73;;;24.60;55.30;;;;;;5016886;28;20639;-77
2022/08/19 06:21:13;;;;;;;15.48;14.05;;;24.70;55.30;;;;;;5017102;28;20216;-77
2022/08/19 06:23:41;;;;;;;15.55;14.18;;;24.70;55.30;;;;;;5017634;28;20199;-76
2022/08/19 06:26:12;;;;;;;14.82;13.52;;;24.70;55.20;;;;;;5004155;28;20199;-76
2022/08/19 06:28:42;;;;;;;14.15;12.85;;;24.70;55.30;;;;;;5019922;28;20196;-76
2022/08/19 06:31:10;;;;;;;14.75;13.35;;;24.70;55.30;;;;;;5019709;28;20310;-76
2022/08/19 06:33:39;;;;;;;15.75;14.43;;;24.70;55.30;;;;;;5017788;28;20606;-77
2022/08/19 06:36:06;;;;;;;15.18;13.75;;;24.70;55.30;;;;;;5000761;28;20216;-75
2022/08/19 06:38:34;;;;;;;15.57;14.18;;;24.80;55.50;;;;;;5017063;28;20207;-76
2022/08/19 06:41:02;;;;;;;15.32;13.82;;;24.80;55.50;;;;;;5017019;28;20251;-76
2022/08/19 06:43:29;;;;;;;14.85;13.45;;;24.80;55.50;;;;;;5020436;28;20204;-75
2022/08/19 06:45:58;;;;;;;14.70;13.30;;;24.80;55.50;;;;;;5000777;28;20717;-75
2022/08/19 06:48:26;;;;;;;15.20;13.80;;;24.80;55.50;;;;;;5017260;28;20234;-75
2022/08/19 06:50:53;;;;;;;14.40;13.07;;;24.80;55.50;;;;;;5016698;28;20713;-76
2022/08/19 06:53:20;;;;;;;14.55;13.15;;;24.80;55.60;;;;;;5002489;28;20224;-75
2022/08/19 06:55:47;;;;;;;15.05;13.60;;;24.80;55.70;;;;;;5018931;28;20220;-76
2022/08/19 06:58:15;;;;;;;15.38;13.98;;;24.80;55.70;;;;;;5000591;28;20199;-76
2022/08/19 07:00:42;;;;;;;16.00;14.48;;;24.80;55.80;;;;;;5035158;28;20226;-76
2022/08/19 07:03:10;;;;;;;16.02;14.32;;;24.80;55.90;;;;;;5019695;28;20192;-76
2022/08/19 07:05:41;;;;;;;17.15;14.93;;;24.80;55.90;;;;;;5018895;28;20287;-75
2022/08/19 07:08:09;;;;;;;16.55;14.65;;;24.80;56.00;;;;;;5020535;28;20250;-76
2022/08/19 07:10:36;;;;;;;15.48;14.00;;;24.90;56.10;;;;;;5002654;28;20229;-75
2022/08/19 07:13:03;;;;;;;15.95;14.45;;;24.90;56.10;;;;;;5034667;28;20578;-77
2022/08/19 07:15:30;;;;;;;16.10;14.18;;;24.80;56.10;;;;;;5020108;28;20613;-76
2022/08/19 07:17:57;;;;;;;16.15;14.55;;;24.80;56.10;;;;;;5019280;28;20211;-76
2022/08/19 07:20:26;;;;;;;15.52;13.98;;;24.90;56.20;;;;;;5019198;28;20283;-75
2022/08/19 07:22:53;;;;;;;15.68;14.13;;;24.90;56.10;;;;;;5019488;28;20200;-75
2022/08/19 07:25:21;;;;;;;15.52;13.98;;;24.90;56.10;;;;;;5020420;28;20196;-76
2022/08/19 07:27:50;;;;;;;15.35;13.80;;;24.90;56.10;;;;;;5019565;28;20204;-76
2022/08/19 07:30:17;;;;;;;15.80;14.23;;;24.90;56.10;;;;;;5018115;28;20285;-75
2022/08/19 07:32:44;;;;;;;15.02;13.68;;;24.90;56.10;;;;;;5034991;28;20199;-76
2022/08/19 07:35:11;;;;;;;15.13;13.63;;;24.90;56.10;;;;;;4989570;28;20611;-75
2022/08/19 07:37:44;;;;;;;15.68;14.15;;;25.00;56.10;;;;;;5019709;28;20315;-76
2022/08/19 07:40:11;;;;;;;14.95;13.38;;;25.00;56.20;;;;;;5004731;28;20216;-75
2022/08/19 07:42:38;;;;;;;15.45;14.05;;;24.90;57.40;;;;;;5003388;28;20266;-76
2022/08/19 07:45:07;;;;;;;14.70;13.30;;;25.00;57.40;;;;;;5004253;28;20591;-75
2022/08/19 07:47:34;;;;;;;15.05;13.63;;;25.00;57.50;;;;;;5021324;28;20189;-75
2022/08/19 07:50:04;;;;;;;15.32;13.93;;;24.90;57.50;;;;;;5006430;28;20216;-76
2022/08/19 07:52:31;;;;;;;14.57;13.18;;;24.90;57.50;;;;;;5023419;28;20192;-76
2022/08/19 07:55:03;;;;;;;15.57;14.00;;;25.00;57.50;;;;;;5023164;28;20581;-76
2022/08/19 07:57:30;;;;;;;16.40;14.80;;;25.00;57.40;;;;;;5023369;28;20697;-76
2022/08/19 07:59:57;;;;;;;15.20;13.77;;;24.90;57.40;;;;;;5023177;28;20687;-76
2022/08/19 08:02:24;;;;;;;14.15;12.75;;;25.00;57.40;;;;;;5022632;28;20200;-76
2022/08/19 08:10:22;;;;;;;14.30;13.00;;;25.00;57.50;;;;;;4995237;28;20220;-76
2022/08/19 08:12:49;;;;;;;14.18;12.98;;;24.90;57.40;;;;;;5023986;28;20204;-75
2022/08/19 08:15:18;;;;;;;14.43;13.02;;;24.90;57.50;;;;;;5007295;28;20211;-76
2022/08/19 08:17:45;;;;;;;14.32;13.02;;;24.90;57.40;;;;;;5023090;28;20579;-75
2022/08/19 08:20:12;;;;;;;14.27;12.98;;;24.90;57.40;;;;;;5006471;28;20223;-75
2022/08/19 08:25:32;;;;;;;13.75;12.55;;;24.90;57.40;;;;;;5021630;28;20188;-75
2022/08/19 08:28:00;;;;;;;14.27;12.93;;;24.90;57.40;;;;;;5019720;28;20200;-76
2022/08/19 08:30:27;;;;;;;13.35;12.18;;;24.90;57.50;;;;;;5003107;28;20223;-75
2022/08/19 08:32:55;;;;;;;13.98;12.57;;;24.90;57.50;;;;;;5019587;28;20200;-76
2022/08/19 08:35:23;;;;;;;14.30;13.10;;;24.90;57.50;;;;;;5022086;28;20223;-75
2022/08/19 08:37:52;;;;;;;13.73;12.43;;;24.90;57.50;;;;;;5021789;28;20769;-76
2022/08/19 08:40:22;;;;;;;14.90;13.50;;;24.90;57.60;;;;;;5021888;28;20260;-75
2022/08/19 08:42:53;;;;;;;14.48;13.07;;;24.90;57.80;;;;;;5038709;28;20219;-76
2022/08/19 08:45:20;;;;;;;14.50;13.20;;;24.90;57.70;;;;;;5021828;28;20693;-75
2022/08/19 08:47:49;;;;;;;14.95;13.45;;;24.90;57.70;;;;;;5020201;28;20541;-75
2022/08/19 08:50:19;;;;;;;13.57;12.38;;;25.00;57.60;;;;;;5037700;28;20220;-74
2022/08/19 08:52:47;;;;;;;13.38;12.20;;;25.00;57.50;;;;;;5040792;28;20274;-75
2022/08/19 08:55:16;;;;;;;14.85;13.50;;;25.00;57.60;;;;;;5024095;28;20224;-76
2022/08/19 08:57:50;;;;;;;13.82;12.52;;;25.00;57.50;;;;;;5020259;28;20634;-75
2022/08/19 09:00:21;;;;;;;14.68;13.38;;;25.10;57.40;;;;;;5025601;28;20686;-76
2022/08/19 09:02:47;;;;;;;13.60;12.38;;;25.10;57.40;;;;;;5022915;28;20200;-75
2022/08/19 09:05:14;;;;;;;13.23;12.02;;;25.10;57.20;;;;;;5038487;28;20196;-76
2022/08/19 09:07:44;;;;;;;13.88;12.73;;;25.20;57.30;;;;;;5022145;28;20196;-76
2022/08/19 09:10:15;;;;;;;13.60;12.30;;;25.20;57.40;;;;;;5005803;28;20224;-76
2022/08/19 09:12:46;;;;;;;13.32;12.15;;;25.20;57.20;;;;;;5020718;28;20192;-76
2022/08/19 09:15:13;;;;;;;13.30;12.20;;;25.20;57.30;;;;;;5020806;28;20181;-75
2022/08/19 09:17:42;;;;;;;13.20;11.88;;;25.20;57.20;;;;;;5020656;28;20223;-76
2022/08/19 09:20:15;;;;;;;13.45;12.15;;;25.20;57.20;;;;;;5004833;28;20265;-76
2022/08/19 09:22:43;;;;;;;12.30;11.27;;;25.20;57.20;;;;;;5004474;28;20203;-76
2022/08/19 09:25:11;;;;;;;13.25;12.05;;;25.20;57.20;;;;;;5037814;28;20200;-76
2022/08/19 09:27:39;;;;;;;12.13;11.02;;;25.30;57.30;;;;;;5036678;28;20673;-76
2022/08/19 09:30:08;;;;;;;12.93;11.73;;;25.30;57.30;;;;;;5021150;28;20270;-75
2022/08/19 09:32:36;;;;;;;13.43;12.23;;;25.30;57.40;;;;;;5005120;28;20235;-76
2022/08/19 09:35:06;;;;;;;12.43;11.43;;;25.20;57.30;;;;;;5020716;28;20196;-76
2022/08/19 09:37:33;;;;;;;13.70;12.50;;;25.20;57.40;;;;;;5020476;28;20216;-76
2022/08/19 09:40:00;;;;;;;12.38;11.27;;;25.20;57.40;;;;;;5004269;28;20220;-76
2022/08/19 09:42:27;;;;;;;12.77;11.68;;;25.20;57.40;;;;;;5020790;28;20196;-76
2022/08/19 09:44:54;;;;;;;11.90;10.90;;;25.30;57.50;;;;;;5020448;28;20681;-77
2022/08/19 09:47:22;;;;;;;13.25;12.02;;;25.20;58.00;;;;;;5020805;28;20192;-75
2022/08/19 09:49:50;;;;;;;12.48;11.38;;;25.20;57.50;;;;;;5037367;28;20265;-76
2022/08/19 09:52:19;;;;;;;13.13;11.98;;;25.30;57.60;;;;;;5020208;28;20206;-76
2022/08/19 09:54:47;;;;;;;12.68;11.55;;;25.20;57.50;;;;;;5004168;28;20231;-75
2022/08/19 09:57:14;;;;;;;12.77;11.68;;;25.20;57.60;;;;;;5003959;28;20215;-76
2022/08/19 09:59:42;;;;;;;12.63;11.43;;;25.20;57.70;;;;;;5004276;28;20604;-76
2022/08/19 10:02:09;;;;;;;13.13;11.93;;;25.20;57.60;;;;;;5005433;28;20196;-75
2022/08/19 10:07:23;;;;;;;11.75;10.75;;;25.20;57.70;;;;;;5020595;28;20654;-76
2022/08/19 10:09:49;;;;;;;12.23;11.23;;;25.20;57.80;;;;;;5005901;28;20211;-76
2022/08/19 10:12:17;;;;;;;12.32;11.25;;;25.20;57.90;;;;;;5024894;28;20191;-76
2022/08/19 10:14:45;;;;;;;11.88;10.77;;;25.20;58.00;;;;;;5037912;28;20196;-74
2022/08/19 10:17:12;;;;;;;12.15;11.15;;;25.20;58.70;;;;;;5021252;28;20215;-75
2022/08/19 10:19:40;;;;;;;12.25;11.25;;;25.20;58.20;;;;;;5003906;28;20215;-76
2022/08/19 10:22:08;;;;;;;11.80;10.80;;;25.20;58.30;;;;;;5020401;28;20227;-75
2022/08/19 10:24:36;;;;;;;12.52;11.43;;;25.20;58.30;;;;;;5020274;28;20196;-76
2022/08/19 10:27:05;;;;;;;11.80;10.90;;;25.20;58.30;;;;;;5020690;28;20188;-75
2022/08/19 10:29:34;;;;;;;10.93;10.02;;;25.10;58.30;;;;;;5020188;28;20200;-75
2022/08/19 10:32:03;;;;;;;11.63;10.43;;;25.10;58.40;;;;;;5019024;28;20199;-76
2022/08/19 10:34:30;;;;;;;11.75;10.68;;;25.10;58.60;;;;;;5020470;28;20225;-76
2022/08/19 10:36:58;;;;;;;11.48;10.48;;;25.10;58.60;;;;;;5020082;28;20256;-76
2022/08/19 10:39:25;;;;;;;12.13;11.13;;;25.10;58.60;;;;;;5020118;28;20195;-76
2022/08/19 10:41:55;;;;;;;11.95;10.85;;;25.10;58.60;;;;;;5003403;28;20230;-76
2022/08/19 10:44:22;;;;;;;12.38;11.27;;;25.10;58.60;;;;;;5035998;28;20278;-76
2022/08/19 10:46:51;;;;;;;11.23;10.23;;;25.10;58.60;;;;;;5019157;28;20204;-75
2022/08/19 10:49:18;;;;;;;11.95;10.95;;;25.10;58.60;;;;;;5035811;28;20204;-76
2022/08/19 10:57:13;;;;;;;11.23;10.23;;;25.10;58.70;;;;;;5018925;28;20681;-77
2022/08/19 10:59:40;;;;;;;11.52;10.52;;;25.20;58.80;;;;;;5003064;28;20247;-76
2022/08/19 11:02:09;;;;;;;12.23;10.85;;;25.20;58.80;;;;;;5018338;28;20606;-77
2022/08/19 11:04:37;;;;;;;10.57;9.68;;;25.20;58.90;;;;;;5000420;28;20196;-76
2022/08/19 11:07:04;;;;;;;10.95;10.05;;;25.20;59.00;;;;;;5018298;28;20650;-76
2022/08/19 11:09:32;;;;;;;11.07;10.18;;;25.20;59.00;;;;;;5019036;28;20230;-76
2022/08/19 11:11:59;;;;;;;11.20;10.30;;;25.10;59.10;;;;;;5020282;28;20212;-76
2022/08/19 11:14:30;;;;;;;11.35;10.45;;;25.10;59.20;;;;;;5002998;28;20206;-76
2022/08/19 11:16:57;;;;;;;10.85;9.95;;;25.10;59.20;;;;;;5018935;28;20215;-76
2022/08/19 11:19:25;;;;;;;11.50;10.43;;;25.10;59.20;;;;;;5016754;28;20196;-75
2022/08/19 11:21:54;;;;;;;11.88;10.75;;;25.10;59.30;;;;;;5036555;28;20678;-76
2022/08/19 11:24:24;;;;;;;11.13;10.05;;;25.10;59.90;;;;;;4990972;28;20200;-76
2022/08/19 11:26:52;;;;;;;10.95;9.95;;;25.10;59.30;;;;;;5023089;28;20204;-76
2022/08/19 11:29:21;;;;;;;10.93;9.93;;;25.10;59.20;;;;;;4991342;28;20203;-76
2022/08/19 11:31:50;;;;;;;11.30;10.20;;;25.10;59.40;;;;;;5022259;28;20587;-76
2022/08/19 11:34:18;;;;;;;11.32;10.32;;;25.10;59.60;;;;;;5007256;28;20272;-77
2022/08/19 11:36:47;;;;;;;11.27;10.27;;;25.10;59.60;;;;;;5022332;28;20192;-77
2022/08/19 11:39:15;;;;;;;11.10;10.15;;;25.10;59.50;;;;;;5022349;28;20192;-77
2022/08/19 11:41:42;;;;;;;10.30;9.38;;;25.10;59.60;;;;;;5021960;28;20330;-76
2022/08/19 11:44:10;;;;;;;11.23;10.23;;;25.10;59.50;;;;;;5006061;28;20390;-75
2022/08/19 11:46:37;;;;;;;11.35;10.32;;;25.10;59.40;;;;;;5003723;28;20229;-76
2022/08/19 11:49:09;;;;;;;10.52;9.55;;;25.10;59.50;;;;;;5020361;28;20749;-76
2022/08/19 11:51:36;;;;;;;11.05;10.05;;;25.10;59.50;;;;;;5022392;28;20772;-76
2022/08/19 11:54:05;;;;;;;11.15;10.18;;;25.10;59.50;;;;;;5006923;28;20200;-75
2022/08/19 11:56:31;;;;;;;11.02;9.93;;;25.10;59.40;;;;;;5022580;28;20195;-75
2022/08/19 11:58:59;;;;;;;10.88;9.90;;;25.20;59.40;;;;;;5021806;28;20687;-77
2022/08/19 12:01:26;;;;;;;11.70;10.68;;;25.20;59.40;;;;;;5006085;28;20290;-76
2022/08/19 12:03:54;;;;;;;11.90;10.73;;;25.10;59.40;;;;;;5006052;28;20718;-76
2022/08/19 12:06:25;;;;;;;11.65;10.65;;;25.20;59.50;;;;;;5022298;28;20215;-75
2022/08/19 12:08:54;;;;;;;10.95;10.05;;;25.20;59.50;;;;;;5019638;28;20184;-76
2022/08/19 12:11:21;;;;;;;10.88;9.88;;;25.20;59.40;;;;;;5021961;28;20228;-76
2022/08/19 12:13:48;;;;;;;11.05;10.07;;;25.20;59.40;;;;;;5022002;28;20200;-75
2022/08/19 12:16:17;;;;;;;10.48;9.57;;;25.20;59.40;;;;;;5022031;28;20211;-76
2022/08/19 12:18:46;;;;;;;11.35;10.45;;;25.20;59.50;;;;;;5022044;28;20247;-77
2022/08/19 12:21:13;;;;;;;11.73;10.73;;;25.30;59.60;;;;;;5006731;28;20255;-76
2022/08/19 12:23:43;;;;;;;12.02;10.82;;;25.20;59.60;;;;;;5022481;28;20238;-75
2022/08/19 12:26:10;;;;;;;10.75;9.77;;;25.20;59.70;;;;;;5021710;28;20200;-76
2022/08/19 12:28:38;;;;;;;11.20;10.25;;;25.20;59.60;;;;;;5021711;28;20238;-75
2022/08/19 12:31:05;;;;;;;11.35;10.35;;;25.30;59.80;;;;;;5021370;28;20262;-75
2022/08/19 12:33:33;;;;;;;10.07;9.18;;;25.20;59.90;;;;;;5022699;28;20666;-75
2022/08/19 12:36:01;;;;;;;10.23;9.23;;;25.20;60.00;;;;;;5022280;28;20273;-76
2022/08/19 12:38:28;;;;;;;10.48;9.55;;;25.20;59.90;;;;;;5022202;28;20216;-75
2022/08/19 12:40:57;;;;;;;11.80;10.70;;;25.20;59.70;;;;;;4990005;28;20224;-75
2022/08/19 12:43:24;;;;;;;10.90;10.00;;;25.20;59.80;;;;;;5022220;28;20573;-75
2022/08/19 12:45:51;;;;;;;11.02;10.13;;;25.20;59.90;;;;;;5022822;28;20212;-75
2022/08/19 12:48:19;;;;;;;11.32;10.32;;;25.20;59.90;;;;;;5042286;28;20256;-76
2022/08/19 12:50:47;;;;;;;11.75;10.50;;;25.20;59.80;;;;;;5024527;28;20246;-76
2022/08/19 12:53:14;;;;;;;10.57;9.68;;;25.20;60.00;;;;;;5004535;28;20299;-77
2022/08/19 12:55:42;;;;;;;10.43;9.52;;;25.20;59.90;;;;;;5005372;28;20206;-76
2022/08/19 12:58:12;;;;;;;10.52;9.48;;;25.20;59.80;;;;;;5020936;28;20216;-76
2022/08/19 13:00:39;;;;;;;11.10;10.10;;;25.20;59.80;;;;;;5020914;28;20219;-76